BKP254 VTSP-VTSM
Flight info
| Callsign | BKP254 |
|---|---|
| Flight time | 0h 37m |
| Altitude | 23000 |
| Route | EMRIT1B EMRIT Y99 AKVUG Y93 DORNA |
| Aircraft | A319/M-SDE3FGHIRWY/LB1 |
Departure
| Time | 2026-04-23 10:22 |
|---|---|
| Airport | Phuket International Airport (VTSP) |
Arrival
| Time | 2026-04-23 10:59 |
|---|---|
| Airport | Samui International Airport (VTSM) |
| Time | Latitude | Longitude | Altitude | Speed | Heading |
|---|---|---|---|---|---|
| 2026-04-23 10:04 | 8.10902 | 98.30552 | 2 ft | 0 kts | 104° |
| 2026-04-23 10:09 | 8.10902 | 98.30551 | 1 ft | 0 kts | 104° |
| 2026-04-23 10:13 | 8.10904 | 98.30543 | 1 ft | 3 kts | 104° |
| 2026-04-23 10:13 | 8.10908 | 98.30524 | 1 ft | 3 kts | 104° |
| 2026-04-23 10:13 | 8.10913 | 98.30505 | 0 ft | 3 kts | 104° |
| 2026-04-23 10:14 | 8.10917 | 98.30486 | 0 ft | 3 kts | 104° |
| 2026-04-23 10:14 | 8.10921 | 98.30468 | 0 ft | 3 kts | 56° |
| 2026-04-23 10:14 | 8.10908 | 98.30459 | -1 ft | 2 kts | 8° |
| 2026-04-23 10:14 | 8.10907 | 98.30459 | -1 ft | 0 kts | 9° |
| 2026-04-23 10:16 | 8.10913 | 98.30460 | -1 ft | 2 kts | 9° |
| 2026-04-23 10:16 | 8.10959 | 98.30469 | 0 ft | 11 kts | 15° |
| 2026-04-23 10:16 | 8.11038 | 98.30501 | 0 ft | 13 kts | 48° |
| 2026-04-23 10:17 | 8.11054 | 98.30594 | 2 ft | 14 kts | 85° |
| 2026-04-23 10:17 | 8.11063 | 98.30690 | 4 ft | 14 kts | 84° |
| 2026-04-23 10:17 | 8.11073 | 98.30796 | 7 ft | 17 kts | 85° |
| 2026-04-23 10:17 | 8.11087 | 98.30914 | 10 ft | 19 kts | 75° |
| 2026-04-23 10:18 | 8.11123 | 98.31056 | 13 ft | 23 kts | 83° |
| 2026-04-23 10:18 | 8.11141 | 98.31224 | 17 ft | 24 kts | 84° |
| 2026-04-23 10:18 | 8.11155 | 98.31391 | 22 ft | 24 kts | 85° |
| 2026-04-23 10:18 | 8.11170 | 98.31558 | 27 ft | 24 kts | 84° |
| 2026-04-23 10:19 | 8.11187 | 98.31723 | 30 ft | 23 kts | 84° |
| 2026-04-23 10:19 | 8.11203 | 98.31886 | 31 ft | 23 kts | 84° |
| 2026-04-23 10:19 | 8.11219 | 98.32049 | 37 ft | 23 kts | 84° |
| 2026-04-23 10:19 | 8.11235 | 98.32211 | 40 ft | 23 kts | 84° |
| 2026-04-23 10:20 | 8.11250 | 98.32373 | 44 ft | 23 kts | 85° |
| 2026-04-23 10:20 | 8.11264 | 98.32528 | 47 ft | 20 kts | 84° |
| 2026-04-23 10:20 | 8.11285 | 98.32617 | 49 ft | 8 kts | 53° |
| 2026-04-23 10:20 | 8.11310 | 98.32635 | 50 ft | 2 kts | 24° |
| 2026-04-23 10:21 | 8.11328 | 98.32638 | 50 ft | 3 kts | 5° |
| 2026-04-23 10:21 | 8.11372 | 98.32637 | 48 ft | 9 kts | 358° |
| 2026-04-23 10:21 | 8.11407 | 98.32594 | 49 ft | 13 kts | 263° |
| 2026-04-23 10:21 | 8.11382 | 98.32335 | 42 ft | 68 kts | 264° |
| 2026-04-23 10:22 | 8.11318 | 98.31653 | 30 ft | 125 kts | 264° |
| 2026-04-23 10:22 | 8.11226 | 98.30648 | 220 ft | 150 kts | 265° |
| 2026-04-23 10:22 | 8.11115 | 98.29611 | 734 ft | 149 kts | 262° |
| 2026-04-23 10:22 | 8.11008 | 98.28559 | 1196 ft | 153 kts | 263° |
| 2026-04-23 10:23 | 8.10898 | 98.27476 | 1700 ft | 158 kts | 263° |
| 2026-04-23 10:23 | 8.10784 | 98.26313 | 1936 ft | 177 kts | 262° |
| 2026-04-23 10:23 | 8.10655 | 98.24997 | 2174 ft | 199 kts | 263° |
| 2026-04-23 10:23 | 8.10511 | 98.23529 | 2395 ft | 222 kts | 263° |
| 2026-04-23 10:24 | 8.10263 | 98.21912 | 2708 ft | 245 kts | 249° |
| 2026-04-23 10:24 | 8.09182 | 98.20536 | 3174 ft | 262 kts | 210° |
| 2026-04-23 10:24 | 8.07427 | 98.20087 | 3963 ft | 267 kts | 176° |
| 2026-04-23 10:24 | 8.05601 | 98.20440 | 4877 ft | 269 kts | 162° |
| 2026-04-23 10:25 | 8.03809 | 98.21026 | 5787 ft | 272 kts | 160° |
| 2026-04-23 10:25 | 8.02002 | 98.21638 | 6625 ft | 276 kts | 160° |
| 2026-04-23 10:25 | 8.00168 | 98.22264 | 7420 ft | 281 kts | 160° |
| 2026-04-23 10:25 | 7.98262 | 98.22767 | 8209 ft | 286 kts | 167° |
| 2026-04-23 10:26 | 7.96293 | 98.23143 | 8994 ft | 290 kts | 163° |
| 2026-04-23 10:26 | 7.94501 | 98.24070 | 9737 ft | 292 kts | 139° |
| 2026-04-23 10:26 | 7.93224 | 98.25663 | 10342 ft | 299 kts | 116° |
| 2026-04-23 10:26 | 7.92679 | 98.27747 | 10533 ft | 321 kts | 91° |
| 2026-04-23 10:27 | 7.93115 | 98.29999 | 10836 ft | 336 kts | 70° |
| 2026-04-23 10:27 | 7.93916 | 98.32234 | 11428 ft | 341 kts | 70° |
| 2026-04-23 10:27 | 7.94711 | 98.34503 | 12076 ft | 345 kts | 71° |
| 2026-04-23 10:27 | 7.95499 | 98.36795 | 12754 ft | 347 kts | 71° |
| 2026-04-23 10:28 | 7.96282 | 98.39108 | 13380 ft | 350 kts | 72° |
| 2026-04-23 10:28 | 7.97068 | 98.41444 | 13935 ft | 353 kts | 72° |
| 2026-04-23 10:28 | 7.97865 | 98.43800 | 14469 ft | 356 kts | 71° |
| 2026-04-23 10:28 | 7.98671 | 98.46176 | 15021 ft | 358 kts | 71° |
| 2026-04-23 10:29 | 7.99484 | 98.48563 | 15563 ft | 361 kts | 71° |
| 2026-04-23 10:29 | 8.00302 | 98.50967 | 16111 ft | 364 kts | 71° |
| 2026-04-23 10:29 | 8.01128 | 98.53390 | 16651 ft | 367 kts | 71° |
| 2026-04-23 10:29 | 8.02060 | 98.55790 | 17180 ft | 370 kts | 63° |
| 2026-04-23 10:30 | 8.03298 | 98.58075 | 17710 ft | 372 kts | 62° |
| 2026-04-23 10:30 | 8.04554 | 98.60370 | 18216 ft | 375 kts | 62° |
| 2026-04-23 10:30 | 8.05824 | 98.62681 | 18673 ft | 378 kts | 62° |
| 2026-04-23 10:30 | 8.06670 | 98.64217 | 18982 ft | 379 kts | 62° |
| 2026-04-23 10:31 | 8.07956 | 98.66552 | 19424 ft | 382 kts | 62° |
| 2026-04-23 10:31 | 8.09252 | 98.68908 | 19883 ft | 385 kts | 61° |
| 2026-04-23 10:31 | 8.10554 | 98.71277 | 20339 ft | 388 kts | 61° |
| 2026-04-23 10:31 | 8.11861 | 98.73665 | 20781 ft | 390 kts | 61° |
| 2026-04-23 10:32 | 8.13177 | 98.76068 | 21223 ft | 392 kts | 61° |
| 2026-04-23 10:32 | 8.14503 | 98.78486 | 21657 ft | 395 kts | 61° |
| 2026-04-23 10:32 | 8.15837 | 98.80918 | 22084 ft | 397 kts | 61° |
| 2026-04-23 10:32 | 8.17180 | 98.83366 | 22491 ft | 400 kts | 61° |
| 2026-04-23 10:33 | 8.18531 | 98.85830 | 22738 ft | 402 kts | 60° |
| 2026-04-23 10:33 | 8.19870 | 98.88276 | 22782 ft | 394 kts | 61° |
| 2026-04-23 10:33 | 8.21191 | 98.90688 | 22785 ft | 391 kts | 60° |
| 2026-04-23 10:33 | 8.22507 | 98.93089 | 22785 ft | 391 kts | 60° |
| 2026-04-23 10:34 | 8.23823 | 98.95486 | 22783 ft | 390 kts | 60° |
| 2026-04-23 10:34 | 8.25142 | 98.97886 | 22780 ft | 390 kts | 60° |
| 2026-04-23 10:34 | 8.26456 | 99.00281 | 22785 ft | 390 kts | 60° |
| 2026-04-23 10:34 | 8.27766 | 99.02678 | 22786 ft | 390 kts | 60° |
| 2026-04-23 10:35 | 8.29075 | 99.05074 | 22786 ft | 390 kts | 60° |
| 2026-04-23 10:35 | 8.30385 | 99.07468 | 22783 ft | 390 kts | 60° |
| 2026-04-23 10:35 | 8.31695 | 99.09864 | 22781 ft | 390 kts | 60° |
| 2026-04-23 10:35 | 8.33004 | 99.12258 | 22784 ft | 390 kts | 60° |
| 2026-04-23 10:36 | 8.34312 | 99.14653 | 22787 ft | 390 kts | 60° |
| 2026-04-23 10:36 | 8.35621 | 99.17048 | 22788 ft | 389 kts | 60° |
| 2026-04-23 10:36 | 8.36932 | 99.19440 | 22787 ft | 389 kts | 60° |
| 2026-04-23 10:36 | 8.38241 | 99.21832 | 22787 ft | 389 kts | 60° |
| 2026-04-23 10:37 | 8.39549 | 99.24228 | 22776 ft | 389 kts | 60° |
| 2026-04-23 10:37 | 8.40855 | 99.26618 | 22775 ft | 389 kts | 60° |
| 2026-04-23 10:37 | 8.42171 | 99.28999 | 22772 ft | 388 kts | 58° |
| 2026-04-23 10:37 | 8.43826 | 99.31146 | 22773 ft | 388 kts | 45° |
| 2026-04-23 10:38 | 8.45944 | 99.32832 | 22771 ft | 389 kts | 31° |
| 2026-04-23 10:38 | 8.48411 | 99.33948 | 22788 ft | 390 kts | 18° |
| 2026-04-23 10:38 | 8.51084 | 99.34439 | 22794 ft | 393 kts | 5° |
| 2026-04-23 10:38 | 8.53815 | 99.34573 | 22784 ft | 393 kts | 4° |
| 2026-04-23 10:39 | 8.56549 | 99.34705 | 22779 ft | 393 kts | 4° |
| 2026-04-23 10:39 | 8.59283 | 99.34840 | 22772 ft | 393 kts | 5° |
| 2026-04-23 10:39 | 8.62017 | 99.34978 | 22731 ft | 393 kts | 4° |
| 2026-04-23 10:39 | 8.64751 | 99.35119 | 22194 ft | 393 kts | 4° |
| 2026-04-23 10:40 | 8.67478 | 99.35258 | 21722 ft | 390 kts | 4° |
| 2026-04-23 10:40 | 8.70179 | 99.35392 | 21258 ft | 387 kts | 4° |
| 2026-04-23 10:40 | 8.72859 | 99.35524 | 20771 ft | 385 kts | 4° |
| 2026-04-23 10:40 | 8.75523 | 99.35656 | 20285 ft | 382 kts | 5° |
| 2026-04-23 10:41 | 8.78169 | 99.35789 | 19787 ft | 380 kts | 5° |
| 2026-04-23 10:41 | 8.80796 | 99.35919 | 19312 ft | 376 kts | 5° |
| 2026-04-23 10:41 | 8.83404 | 99.36049 | 18812 ft | 374 kts | 5° |
| 2026-04-23 10:41 | 8.86002 | 99.36177 | 18311 ft | 373 kts | 5° |
| 2026-04-23 10:42 | 8.88590 | 99.36305 | 17776 ft | 372 kts | 5° |
| 2026-04-23 10:42 | 8.91162 | 99.36434 | 17278 ft | 368 kts | 5° |
| 2026-04-23 10:42 | 8.93707 | 99.36561 | 16779 ft | 365 kts | 5° |
| 2026-04-23 10:42 | 8.96231 | 99.36688 | 16281 ft | 362 kts | 5° |
| 2026-04-23 10:43 | 8.98738 | 99.36814 | 15785 ft | 359 kts | 5° |
| 2026-04-23 10:43 | 9.01220 | 99.36936 | 15315 ft | 356 kts | 5° |
| 2026-04-23 10:43 | 9.03666 | 99.37171 | 14827 ft | 351 kts | 14° |
| 2026-04-23 10:43 | 9.05963 | 99.37938 | 14337 ft | 346 kts | 28° |
| 2026-04-23 10:44 | 9.07984 | 99.39222 | 13874 ft | 341 kts | 41° |
| 2026-04-23 10:44 | 9.09650 | 99.40909 | 13407 ft | 338 kts | 50° |
| 2026-04-23 10:44 | 9.11205 | 99.42675 | 12910 ft | 335 kts | 50° |
| 2026-04-23 10:44 | 9.12753 | 99.44422 | 12439 ft | 332 kts | 50° |
| 2026-04-23 10:45 | 9.14291 | 99.46154 | 11982 ft | 329 kts | 50° |
| 2026-04-23 10:45 | 9.15813 | 99.47866 | 11544 ft | 326 kts | 49° |
| 2026-04-23 10:45 | 9.17324 | 99.49565 | 11082 ft | 324 kts | 49° |
| 2026-04-23 10:45 | 9.18828 | 99.51259 | 10638 ft | 323 kts | 49° |
| 2026-04-23 10:46 | 9.20315 | 99.52935 | 10339 ft | 316 kts | 49° |
| 2026-04-23 10:46 | 9.21759 | 99.54565 | 10210 ft | 305 kts | 49° |
| 2026-04-23 10:46 | 9.23155 | 99.56143 | 10058 ft | 297 kts | 49° |
| 2026-04-23 10:46 | 9.24532 | 99.57700 | 9998 ft | 297 kts | 49° |
| 2026-04-23 10:47 | 9.25910 | 99.59259 | 9720 ft | 299 kts | 49° |
| 2026-04-23 10:47 | 9.27304 | 99.60834 | 9275 ft | 301 kts | 49° |
| 2026-04-23 10:47 | 9.28696 | 99.62409 | 8852 ft | 300 kts | 50° |
| 2026-04-23 10:47 | 9.30081 | 99.63975 | 8543 ft | 296 kts | 50° |
| 2026-04-23 10:48 | 9.31464 | 99.65537 | 8108 ft | 297 kts | 49° |
| 2026-04-23 10:48 | 9.32825 | 99.67075 | 7875 ft | 291 kts | 50° |
| 2026-04-23 10:48 | 9.34169 | 99.68596 | 7587 ft | 288 kts | 50° |
| 2026-04-23 10:48 | 9.35499 | 99.70104 | 7237 ft | 287 kts | 49° |
| 2026-04-23 10:49 | 9.36828 | 99.71609 | 6888 ft | 286 kts | 49° |
| 2026-04-23 10:49 | 9.38157 | 99.73108 | 6557 ft | 286 kts | 49° |
| 2026-04-23 10:49 | 9.39482 | 99.74606 | 6232 ft | 284 kts | 49° |
| 2026-04-23 10:49 | 9.40807 | 99.76084 | 5788 ft | 283 kts | 46° |
| 2026-04-23 10:50 | 9.42377 | 99.77276 | 5342 ft | 283 kts | 29° |
| 2026-04-23 10:50 | 9.44183 | 99.78050 | 4975 ft | 282 kts | 21° |
| 2026-04-23 10:50 | 9.45990 | 99.78749 | 4844 ft | 273 kts | 21° |
| 2026-04-23 10:50 | 9.47738 | 99.79426 | 4733 ft | 264 kts | 21° |
| 2026-04-23 10:51 | 9.49417 | 99.80079 | 4611 ft | 254 kts | 21° |
| 2026-04-23 10:51 | 9.51030 | 99.80710 | 4495 ft | 243 kts | 21° |
| 2026-04-23 10:51 | 9.52598 | 99.81319 | 4385 ft | 244 kts | 21° |
| 2026-04-23 10:51 | 9.54196 | 99.81941 | 4256 ft | 247 kts | 21° |
| 2026-04-23 10:52 | 9.55801 | 99.82569 | 4133 ft | 249 kts | 22° |
| 2026-04-23 10:52 | 9.57403 | 99.83197 | 4029 ft | 246 kts | 21° |
| 2026-04-23 10:52 | 9.58996 | 99.83821 | 3927 ft | 246 kts | 23° |
| 2026-04-23 10:52 | 9.60423 | 99.84797 | 3807 ft | 261 kts | 50° |
| 2026-04-23 10:53 | 9.61440 | 99.86377 | 3689 ft | 272 kts | 62° |
| 2026-04-23 10:53 | 9.62367 | 99.88061 | 3583 ft | 274 kts | 62° |
| 2026-04-23 10:53 | 9.63281 | 99.89744 | 3472 ft | 272 kts | 63° |
| 2026-04-23 10:53 | 9.64170 | 99.91382 | 3351 ft | 264 kts | 62° |
| 2026-04-23 10:54 | 9.65038 | 99.92980 | 3230 ft | 255 kts | 63° |
| 2026-04-23 10:54 | 9.65890 | 99.94541 | 3111 ft | 245 kts | 62° |
| 2026-04-23 10:54 | 9.66690 | 99.96009 | 3008 ft | 232 kts | 63° |
| 2026-04-23 10:54 | 9.67454 | 99.97411 | 2884 ft | 223 kts | 62° |
| 2026-04-23 10:55 | 9.68139 | 99.98773 | 2754 ft | 211 kts | 74° |
| 2026-04-23 10:55 | 9.68261 | 100.00187 | 2637 ft | 197 kts | 101° |
| 2026-04-23 10:55 | 9.67784 | 100.01394 | 2580 ft | 182 kts | 124° |
| 2026-04-23 10:55 | 9.66899 | 100.02245 | 2446 ft | 171 kts | 145° |
| 2026-04-23 10:56 | 9.65916 | 100.02945 | 2250 ft | 169 kts | 144° |
| 2026-04-23 10:56 | 9.64978 | 100.03623 | 2045 ft | 167 kts | 143° |
| 2026-04-23 10:56 | 9.64046 | 100.04300 | 1812 ft | 163 kts | 143° |
| 2026-04-23 10:56 | 9.63132 | 100.04958 | 1593 ft | 160 kts | 144° |
| 2026-04-23 10:57 | 9.62142 | 100.05470 | 1375 ft | 161 kts | 161° |
| 2026-04-23 10:57 | 9.61068 | 100.05637 | 1167 ft | 150 kts | 173° |
| 2026-04-23 10:57 | 9.60076 | 100.05730 | 978 ft | 139 kts | 173° |
| 2026-04-23 10:57 | 9.59132 | 100.05824 | 809 ft | 133 kts | 173° |
| 2026-04-23 10:58 | 9.58227 | 100.05915 | 618 ft | 129 kts | 174° |
| 2026-04-23 10:58 | 9.57341 | 100.05992 | 425 ft | 127 kts | 173° |
| 2026-04-23 10:58 | 9.56477 | 100.06084 | 269 ft | 123 kts | 174° |
| 2026-04-23 10:58 | 9.55625 | 100.06164 | 100 ft | 123 kts | 174° |
| 2026-04-23 10:59 | 9.54827 | 100.06241 | 51 ft | 97 kts | 174° |
| 2026-04-23 10:59 | 9.54322 | 100.06291 | 50 ft | 51 kts | 174° |
| 2026-04-23 10:59 | 9.54027 | 100.06317 | 53 ft | 35 kts | 175° |
| 2026-04-23 10:59 | 9.53869 | 100.06315 | 53 ft | 10 kts | 147° |
| 2026-04-23 11:00 | 9.53895 | 100.06333 | 51 ft | 10 kts | 358° |
| 2026-04-23 11:00 | 9.54003 | 100.06322 | 53 ft | 22 kts | 354° |
| 2026-04-23 11:00 | 9.54180 | 100.06306 | 50 ft | 29 kts | 354° |
| 2026-04-23 11:00 | 9.54387 | 100.06286 | 52 ft | 31 kts | 354° |
| 2026-04-23 11:01 | 9.54583 | 100.06266 | 53 ft | 24 kts | 354° |
| 2026-04-23 11:01 | 9.54764 | 100.06248 | 51 ft | 28 kts | 355° |
| 2026-04-23 11:01 | 9.54942 | 100.06235 | 50 ft | 20 kts | 355° |
| 2026-04-23 11:01 | 9.55074 | 100.06224 | 53 ft | 20 kts | 355° |
| 2026-04-23 11:02 | 9.55124 | 100.06253 | 53 ft | 9 kts | 92° |
| 2026-04-23 11:02 | 9.55155 | 100.06309 | 53 ft | 10 kts | 42° |
| 2026-04-23 11:02 | 9.55162 | 100.06338 | 53 ft | 1 kts | 87° |